Time;durP1;ratioP1;P1;durP2;ratioP2;P2;SDS_P1;SDS_P2;PMS_P1;PMS_P2;Temp;Humidity;BMP_temperature;BMP_pressure;BME280_temperature;BME280_humidity;BME280_pressure;Samples;Min_cycle;Max_cycle;Signal;HPM_P1;HPM_P2
2023/10/04 16:20:14;;;;;;;4.88;1.63;;;;;;;;;;4261017;27;20932;-75
2023/10/04 16:22:17;;;;;;;9.07;4.53;;;;;;;;;;4212458;27;61516;-79
2023/10/04 16:24:19;;;;;;;7.43;3.33;;;;;;;;;;4188818;28;20439;-75
2023/10/04 16:26:21;;;;;;;5.03;2.00;;;;;;;;;;4224996;28;20171;-74
2023/10/04 16:28:23;;;;;;;6.00;1.80;;;;;;;;;;4220033;28;20610;-75
2023/10/04 16:30:26;;;;;;;5.13;1.85;;;;;;;;;;4210417;28;20090;-75
2023/10/04 16:32:29;;;;;;;5.45;1.88;;;;;;;;;;4221726;28;20040;-74
2023/10/04 16:34:33;;;;;;;4.82;1.50;;;;;;;;;;4226805;28;20044;-74
2023/10/04 16:36:36;;;;;;;5.95;1.83;;;;;;;;;;4226337;28;20444;-74
2023/10/04 16:38:39;;;;;;;6.70;1.80;;;;;;;;;;4226959;28;20101;-74
2023/10/04 16:40:41;;;;;;;6.80;1.85;;;;;;;;;;4221776;28;20044;-76
2023/10/04 16:42:43;;;;;;;7.13;2.00;;;;;;;;;;4223757;28;20051;-74
2023/10/04 16:44:44;;;;;;;5.30;1.67;;;;;;;;;;4220766;28;20125;-76
2023/10/04 16:46:47;;;;;;;3.80;1.55;;;;;;;;;;4222459;28;20128;-77
2023/10/04 16:48:49;;;;;;;5.43;1.50;;;;;;;;;;4226822;28;20128;-77
2023/10/04 16:50:50;;;;;;;4.32;1.55;;;;;;;;;;4225118;28;20052;-77
2023/10/04 16:52:54;;;;;;;7.90;2.03;;;;;;;;;;4225981;28;20086;-74
2023/10/04 16:54:56;;;;;;;5.68;1.55;;;;;;;;;;4226609;28;20579;-77
2023/10/04 16:56:58;;;;;;;7.53;1.60;;;;;;;;;;4225264;28;20051;-79
2023/10/04 16:59:01;;;;;;;5.45;1.60;;;;;;;;;;4224877;28;20097;-76
2023/10/04 17:01:03;;;;;;;7.80;2.20;;;;;;;;;;4226658;28;20097;-75
2023/10/04 17:03:06;;;;;;;6.80;1.75;;;;;;;;;;4227185;28;20097;-75
2023/10/04 17:05:09;;;;;;;5.93;1.80;;;;;;;;;;4225477;28;20048;-77
2023/10/04 17:07:12;;;;;;;4.43;1.50;;;;;;;;;;4218634;28;20549;-75
2023/10/04 17:09:16;;;;;;;6.10;1.90;;;;;;;;;;4206328;28;20044;-76
2023/10/04 17:11:18;;;;;;;8.13;2.00;;;;;;;;;;4209832;28;20424;-76
2023/10/04 17:13:20;;;;;;;6.38;1.75;;;;;;;;;;4209825;28;20051;-77
2023/10/04 17:15:23;;;;;;;4.07;1.55;;;;;;;;;;4201420;28;20052;-75
2023/10/04 17:17:26;;;;;;;5.68;1.60;;;;;;;;;;4202130;28;20150;-77
2023/10/04 17:19:29;;;;;;;4.53;1.50;;;;;;;;;;4201658;28;20068;-77
2023/10/04 17:21:31;;;;;;;5.93;1.63;;;;;;;;;;4192552;28;20049;-77
2023/10/04 17:23:33;;;;;;;4.43;1.50;;;;;;;;;;4192955;28;20052;-76
2023/10/04 17:25:37;;;;;;;4.38;1.30;;;;;;;;;;4199110;28;20049;-75
2023/10/04 17:27:39;;;;;;;6.50;1.80;;;;;;;;;;4207571;28;20056;-76
2023/10/04 17:29:41;;;;;;;6.93;1.70;;;;;;;;;;4191421;28;20059;-76
2023/10/04 17:31:43;;;;;;;4.50;1.60;;;;;;;;;;4185092;28;20051;-76
2023/10/04 17:33:46;;;;;;;4.97;1.60;;;;;;;;;;4190373;28;20045;-76
2023/10/04 17:35:48;;;;;;;4.32;1.40;;;;;;;;;;4188541;28;20106;-76
2023/10/04 17:37:50;;;;;;;5.07;1.58;;;;;;;;;;4181391;28;20045;-74
2023/10/04 17:39:52;;;;;;;4.07;1.60;;;;;;;;;;4181632;28;20126;-76
2023/10/04 17:41:57;;;;;;;4.70;1.75;;;;;;;;;;4181875;28;20053;-74
2023/10/04 17:44:00;;;;;;;;;;;;;;;;;;4183819;28;20072;-75
2023/10/04 17:46:02;;;;;;;5.55;1.67;;;;;;;;;;4188932;28;19973;-75
2023/10/04 17:48:04;;;;;;;5.65;1.85;;;;;;;;;;4198320;28;20056;-76
2023/10/04 17:50:08;;;;;;;5.72;1.90;;;;;;;;;;4192632;28;20110;-76
2023/10/04 17:52:11;;;;;;;6.40;2.13;;;;;;;;;;4191631;28;20135;-76
2023/10/04 17:54:15;;;;;;;6.80;1.90;;;;;;;;;;4180948;28;20116;-76
2023/10/04 17:56:17;;;;;;;5.68;2.05;;;;;;;;;;4179480;28;20049;-75
2023/10/04 17:58:21;;;;;;;5.43;1.80;;;;;;;;;;4178052;28;20052;-74
2023/10/04 18:00:23;;;;;;;6.15;1.85;;;;;;;;;;4180091;28;20057;-75
2023/10/04 18:02:24;;;;;;;6.93;2.20;;;;;;;;;;4184359;28;20458;-76
2023/10/04 18:04:26;;;;;;;5.70;2.10;;;;;;;;;;4180415;28;20099;-73
2023/10/04 18:06:29;;;;;;;7.78;1.90;;;;;;;;;;4180410;28;20056;-75
2023/10/04 18:08:32;;;;;;;6.78;1.95;;;;;;;;;;4188562;28;20048;-75
2023/10/04 18:10:34;;;;;;;5.90;1.67;;;;;;;;;;4180081;28;20057;-75
2023/10/04 18:12:37;;;;;;;5.53;1.60;;;;;;;;;;4179610;28;20048;-76
2023/10/04 18:14:43;;;;;;;5.88;1.63;;;;;;;;;;4178470;28;20052;-75
2023/10/04 18:16:46;;;;;;;5.57;1.90;;;;;;;;;;4180335;28;20536;-76
2023/10/04 18:18:48;;;;;;;5.40;1.83;;;;;;;;;;4178651;28;20057;-75
2023/10/04 18:20:50;;;;;;;5.00;1.60;;;;;;;;;;4193894;28;20059;-75
2023/10/04 18:22:53;;;;;;;5.55;2.00;;;;;;;;;;4196752;28;20056;-77
2023/10/04 18:24:57;;;;;;;6.03;1.70;;;;;;;;;;4183147;28;20079;-76
2023/10/04 18:27:00;;;;;;;5.47;1.88;;;;;;;;;;4182551;28;20041;-74
2023/10/04 18:29:03;;;;;;;5.50;1.70;;;;;;;;;;4195347;28;20140;-79
2023/10/04 18:31:09;;;;;;;5.10;1.73;;;;;;;;;;4190727;28;20102;-75
2023/10/04 18:33:11;;;;;;;5.00;1.77;;;;;;;;;;4178585;28;20510;-76
2023/10/04 18:35:13;;;;;;;4.18;1.50;;;;;;;;;;4180563;28;20044;-76
2023/10/04 18:37:15;;;;;;;5.95;1.98;;;;;;;;;;4178750;28;20437;-75
2023/10/04 18:39:18;;;;;;;5.90;1.70;;;;;;;;;;4179233;28;20055;-75
2023/10/04 18:41:22;;;;;;;4.38;1.77;;;;;;;;;;4183374;28;20058;-78
2023/10/04 18:43:24;;;;;;;5.22;2.38;;;;;;;;;;4191276;28;20151;-76
2023/10/04 18:45:26;;;;;;;6.20;2.30;;;;;;;;;;4202056;28;20479;-76
2023/10/04 18:47:29;;;;;;;6.38;1.75;;;;;;;;;;4180964;28;20134;-78
2023/10/04 18:49:31;;;;;;;4.80;1.65;;;;;;;;;;4180135;28;20053;-76
2023/10/04 18:51:34;;;;;;;6.63;2.08;;;;;;;;;;4178725;28;20102;-76
2023/10/04 18:53:38;;;;;;;4.72;2.22;;;;;;;;;;4178459;28;20052;-75
2023/10/04 18:55:41;;;;;;;5.93;2.10;;;;;;;;;;4184554;28;20110;-76
2023/10/04 18:57:45;;;;;;;6.30;2.40;;;;;;;;;;4192487;28;20051;-74
2023/10/04 18:59:50;;;;;;;6.10;2.17;;;;;;;;;;4195031;28;20450;-78
2023/10/04 19:01:53;;;;;;;6.82;2.47;;;;;;;;;;4194637;28;20079;-81
2023/10/04 19:03:57;;;;;;;6.15;2.20;;;;;;;;;;4178915;28;20087;-81
2023/10/04 19:06:00;;;;;;;7.82;2.30;;;;;;;;;;4190854;28;20513;-80
2023/10/04 19:08:02;;;;;;;4.60;1.80;;;;;;;;;;4178106;28;20057;-80
2023/10/04 19:10:05;;;;;;;5.65;1.60;;;;;;;;;;4178327;28;20475;-75
2023/10/04 19:12:08;;;;;;;5.85;2.25;;;;;;;;;;4190363;28;20055;-76
2023/10/04 19:14:10;;;;;;;6.20;2.40;;;;;;;;;;4210106;28;20113;-74
2023/10/04 19:16:12;;;;;;;5.82;2.00;;;;;;;;;;4192472;28;20098;-74
2023/10/04 19:18:14;;;;;;;5.03;1.95;;;;;;;;;;4194794;28;20048;-75
2023/10/04 19:20:19;;;;;;;5.80;2.13;;;;;;;;;;4195115;28;20048;-76
2023/10/04 19:22:24;;;;;;;4.68;1.88;;;;;;;;;;4195102;28;20086;-74
2023/10/04 19:24:26;;;;;;;4.50;2.08;;;;;;;;;;4190645;28;20167;-74
2023/10/04 19:26:28;;;;;;;6.28;2.40;;;;;;;;;;4178428;28;20052;-76
2023/10/04 19:28:32;;;;;;;5.32;2.30;;;;;;;;;;4178386;28;20521;-75
2023/10/04 19:30:36;;;;;;;5.65;2.38;;;;;;;;;;4192066;28;20084;-74
2023/10/04 19:32:39;;;;;;;6.95;2.45;;;;;;;;;;4194853;28;20052;-75
2023/10/04 19:34:41;;;;;;;5.00;2.28;;;;;;;;;;4193251;28;20603;-76
2023/10/04 19:36:45;;;;;;;6.57;2.80;;;;;;;;;;4194898;28;20070;-77
2023/10/04 19:38:46;;;;;;;8.35;3.50;;;;;;;;;;4194772;28;20197;-77
2023/10/04 19:40:50;;;;;;;6.72;2.40;;;;;;;;;;4194551;28;20056;-74
2023/10/04 19:42:53;;;;;;;4.72;2.00;;;;;;;;;;4194353;28;20121;-76
2023/10/04 19:44:54;;;;;;;5.70;2.38;;;;;;;;;;4190844;28;20048;-78
2023/10/04 19:46:56;;;;;;;7.22;2.40;;;;;;;;;;4196131;28;20125;-73
2023/10/04 19:48:58;;;;;;;5.65;2.17;;;;;;;;;;4183012;28;20049;-76
2023/10/04 19:51:01;;;;;;;7.32;2.60;;;;;;;;;;4179289;28;20430;-76
2023/10/04 19:53:05;;;;;;;7.32;2.42;;;;;;;;;;4179318;28;20052;-77
2023/10/04 19:55:09;;;;;;;7.28;2.25;;;;;;;;;;4178847;28;20379;-74
2023/10/04 19:57:12;;;;;;;5.32;2.20;;;;;;;;;;4177529;28;20052;-75
2023/10/04 19:59:14;;;;;;;5.85;2.10;;;;;;;;;;4179193;28;20055;-73
2023/10/04 20:01:17;;;;;;;7.15;2.45;;;;;;;;;;4178734;28;20080;-76
2023/10/04 20:03:19;;;;;;;7.25;2.50;;;;;;;;;;4179592;28;20052;-72
2023/10/04 20:05:30;;;;;;;5.30;2.28;;;;;;;;;;4179089;28;20103;-75
2023/10/04 20:07:32;;;;;;;6.10;2.10;;;;;;;;;;4179471;28;20059;-74
2023/10/04 20:09:37;;;;;;;7.30;2.13;;;;;;;;;;4179137;28;20057;-73
2023/10/04 20:11:39;;;;;;;5.47;2.42;;;;;;;;;;4179502;28;20064;-77
2023/10/04 20:13:43;;;;;;;6.85;2.17;;;;;;;;;;4179306;28;20045;-76
2023/10/04 20:15:46;;;;;;;6.07;2.00;;;;;;;;;;4192567;28;20474;-75
2023/10/04 20:17:50;;;;;;;8.70;2.10;;;;;;;;;;4195802;28;20048;-76
2023/10/04 20:19:53;;;;;;;5.43;2.20;;;;;;;;;;4195992;28;20151;-75
2023/10/04 20:21:56;;;;;;;5.53;2.38;;;;;;;;;;4195116;28;20056;-75
2023/10/04 20:23:58;;;;;;;5.63;2.50;;;;;;;;;;4196121;28;20053;-76
2023/10/04 20:26:08;;;;;;;6.97;2.17;;;;;;;;;;4194613;28;20110;-74
2023/10/04 20:28:14;;;;;;;6.85;2.40;;;;;;;;;;4195939;28;20049;-74
2023/10/04 20:30:17;;;;;;;4.85;2.00;;;;;;;;;;4196118;28;20118;-75
2023/10/04 20:32:19;;;;;;;8.98;2.50;;;;;;;;;;4205445;28;20049;-75
2023/10/04 20:34:21;;;;;;;5.03;2.17;;;;;;;;;;4196399;28;20128;-75
2023/10/04 20:36:24;;;;;;;5.60;2.38;;;;;;;;;;4179260;28;20056;-75
2023/10/04 20:38:26;;;;;;;7.85;2.55;;;;;;;;;;4179449;28;20088;-73
2023/10/04 20:40:29;;;;;;;8.18;2.65;;;;;;;;;;4179218;28;20057;-75
2023/10/04 20:42:33;;;;;;;5.88;2.17;;;;;;;;;;4178962;28;20055;-74
2023/10/04 20:44:35;;;;;;;7.70;2.55;;;;;;;;;;4178813;28;20118;-75
2023/10/04 20:46:37;;;;;;;6.43;2.25;;;;;;;;;;4178850;28;20132;-75
2023/10/04 20:48:39;;;;;;;6.82;2.47;;;;;;;;;;4179199;28;20399;-75
2023/10/04 20:50:42;;;;;;;5.60;2.35;;;;;;;;;;4193719;28;20045;-77
2023/10/04 20:52:46;;;;;;;7.00;2.35;;;;;;;;;;4194079;28;20068;-76
2023/10/04 20:54:49;;;;;;;5.78;2.38;;;;;;;;;;4188425;28;20056;-77
2023/10/04 20:56:51;;;;;;;5.80;2.10;;;;;;;;;;4181437;28;20045;-76
2023/10/04 20:58:55;;;;;;;4.88;2.00;;;;;;;;;;4177967;28;20045;-76
2023/10/04 21:00:58;;;;;;;5.15;2.17;;;;;;;;;;4180650;28;20059;-77
2023/10/04 21:03:01;;;;;;;4.38;1.67;;;;;;;;;;4179360;28;20072;-77
2023/10/04 21:05:04;;;;;;;4.70;1.80;;;;;;;;;;4179154;28;20049;-77
2023/10/04 21:07:07;;;;;;;5.68;1.85;;;;;;;;;;4181868;28;20103;-75
2023/10/04 21:09:10;;;;;;;5.45;2.35;;;;;;;;;;4181822;28;20067;-75
2023/10/04 21:11:12;;;;;;;8.65;2.60;;;;;;;;;;4182134;28;20470;-75
2023/10/04 21:13:16;;;;;;;5.82;2.33;;;;;;;;;;4182242;28;20099;-75
2023/10/04 21:15:20;;;;;;;6.75;2.30;;;;;;;;;;4195656;28;20105;-77
2023/10/04 21:17:22;;;;;;;8.43;2.20;;;;;;;;;;4198539;28;20067;-76
2023/10/04 21:19:24;;;;;;;4.72;1.88;;;;;;;;;;4198464;28;20821;-75
2023/10/04 21:21:26;;;;;;;9.32;2.45;;;;;;;;;;4189415;28;20491;-75
2023/10/04 21:23:29;;;;;;;5.57;2.28;;;;;;;;;;4182031;28;20056;-77
2023/10/04 21:25:31;;;;;;;5.85;2.20;;;;;;;;;;4196621;28;20051;-76
2023/10/04 21:27:33;;;;;;;9.52;3.15;;;;;;;;;;4191307;28;20044;-75
2023/10/04 21:29:37;;;;;;;6.82;3.10;;;;;;;;;;4181768;28;20049;-74
2023/10/04 21:31:40;;;;;;;6.25;2.05;;;;;;;;;;4182044;28;20041;-73
2023/10/04 21:33:44;;;;;;;6.28;2.22;;;;;;;;;;4180950;28;20049;-75
2023/10/04 21:35:52;;;;;;;6.13;2.00;;;;;;;;;;4192981;28;20132;-76
2023/10/04 21:37:57;;;;;;;4.88;1.92;;;;;;;;;;4181554;28;20056;-77
2023/10/04 21:39:58;;;;;;;7.05;3.05;;;;;;;;;;4194309;28;20053;-78
2023/10/04 21:42:00;;;;;;;7.32;3.20;;;;;;;;;;4194856;28;20736;-74
2023/10/04 21:44:08;;;;;;;5.53;2.97;;;;;;;;;;4208558;28;20052;-74
2023/10/04 21:46:13;;;;;;;7.75;2.40;;;;;;;;;;4200063;28;20491;-75
2023/10/04 21:48:17;;;;;;;5.83;1.87;;;;;;;;;;4199130;28;20470;-75
2023/10/04 21:50:21;;;;;;;7.07;2.05;;;;;;;;;;4186777;28;20136;-74
2023/10/04 21:52:26;;;;;;;5.97;2.60;;;;;;;;;;4216903;28;20080;-76
2023/10/04 21:54:28;;;;;;;7.68;2.65;;;;;;;;;;4203926;28;20110;-76
2023/10/04 21:56:31;;;;;;;7.70;2.60;;;;;;;;;;4188025;28;20048;-74
2023/10/04 21:58:33;;;;;;;6.82;2.80;;;;;;;;;;4209273;28;20083;-77
2023/10/04 22:00:43;;;;;;;5.70;2.40;;;;;;;;;;4211951;28;20048;-76
2023/10/04 22:02:45;;;;;;;6.70;2.60;;;;;;;;;;4183412;28;20079;-77
2023/10/04 22:04:49;;;;;;;7.35;2.35;;;;;;;;;;4195141;28;20045;-76
2023/10/04 22:06:50;;;;;;;5.60;2.30;;;;;;;;;;4199576;28;20049;-73
2023/10/04 22:08:54;;;;;;;6.50;2.42;;;;;;;;;;4199690;28;20051;-76
2023/10/04 22:10:58;;;;;;;6.57;2.00;;;;;;;;;;4198263;28;20123;-75
2023/10/04 22:13:01;;;;;;;3.92;1.80;;;;;;;;;;4199467;28;20086;-73
2023/10/04 22:15:04;;;;;;;7.00;2.20;;;;;;;;;;4184634;28;20045;-73
2023/10/04 22:17:06;;;;;;;6.00;2.00;;;;;;;;;;4183031;28;20079;-74
2023/10/04 22:19:10;;;;;;;4.88;1.67;;;;;;;;;;4184105;28;20103;-77
2023/10/04 22:21:15;;;;;;;5.07;1.83;;;;;;;;;;4186159;28;20088;-78
2023/10/04 22:23:17;;;;;;;7.67;2.37;;;;;;;;;;4200093;28;20040;-76
2023/10/04 22:25:21;;;;;;;4.82;2.17;;;;;;;;;;4185655;28;20444;-78
2023/10/04 22:27:24;;;;;;;5.28;2.00;;;;;;;;;;4192037;28;20040;-75
2023/10/04 22:29:26;;;;;;;7.32;2.45;;;;;;;;;;4183414;28;20045;-75
2023/10/04 22:31:29;;;;;;;8.02;2.53;;;;;;;;;;4182596;28;20044;-77
2023/10/04 22:33:34;;;;;;;6.18;1.75;;;;;;;;;;4182159;28;20076;-72
2023/10/04 22:35:36;;;;;;;7.03;2.20;;;;;;;;;;4181929;28;20048;-78
2023/10/04 22:37:39;;;;;;;4.82;1.90;;;;;;;;;;4182255;28;20045;-76
2023/10/04 22:39:42;;;;;;;6.22;2.10;;;;;;;;;;4185776;28;20107;-76
2023/10/04 22:41:43;;;;;;;5.45;1.70;;;;;;;;;;4181739;28;20063;-73
2023/10/04 22:43:45;;;;;;;5.50;2.00;;;;;;;;;;4184743;28;20053;-75
2023/10/04 22:45:47;;;;;;;5.07;2.15;;;;;;;;;;4183821;28;20098;-78
2023/10/04 22:47:50;;;;;;;5.45;2.45;;;;;;;;;;4182264;28;20099;-75
2023/10/04 22:49:52;;;;;;;4.68;2.20;;;;;;;;;;4196044;28;20051;-75
2023/10/04 22:51:55;;;;;;;5.13;2.10;;;;;;;;;;4198843;28;20044;-75
2023/10/04 22:53:59;;;;;;;5.82;2.08;;;;;;;;;;4196830;28;20398;-75
2023/10/04 22:56:04;;;;;;;4.95;2.08;;;;;;;;;;4211511;28;20048;-76
2023/10/04 22:58:06;;;;;;;6.35;2.10;;;;;;;;;;4198957;28;20048;-78
2023/10/04 23:00:13;;;;;;;5.38;1.90;;;;;;;;;;4184696;28;20068;-76
2023/10/04 23:02:16;;;;;;;6.22;2.00;;;;;;;;;;4199322;28;20052;-74
2023/10/04 23:04:18;;;;;;;5.97;2.10;;;;;;;;;;4199009;28;20471;-75
2023/10/04 23:06:21;;;;;;;4.50;2.13;;;;;;;;;;4198712;28;20045;-77
2023/10/04 23:08:24;;;;;;;4.63;1.75;;;;;;;;;;4196277;28;20098;-77
2023/10/04 23:10:32;;;;;;;7.65;1.77;;;;;;;;;;4182361;28;20631;-77
2023/10/04 23:12:36;;;;;;;7.05;2.10;;;;;;;;;;4182501;28;20048;-75
2023/10/04 23:14:39;;;;;;;6.15;2.33;;;;;;;;;;4190554;28;20500;-74
2023/10/04 23:16:43;;;;;;;5.03;1.90;;;;;;;;;;4188259;28;20397;-75
2023/10/04 23:18:48;;;;;;;5.13;1.67;;;;;;;;;;4186962;28;20072;-77
2023/10/04 23:20:56;;;;;;;4.63;1.77;;;;;;;;;;4189186;28;20131;-74
2023/10/04 23:22:58;;;;;;;4.82;1.85;;;;;;;;;;4187077;28;20051;-75
2023/10/04 23:25:00;;;;;;;5.55;1.98;;;;;;;;;;4199299;28;20671;-75
2023/10/04 23:27:05;;;;;;;6.82;1.95;;;;;;;;;;4209756;28;20040;-77
2023/10/04 23:29:09;;;;;;;5.43;2.40;;;;;;;;;;4201674;28;20040;-76
2023/10/04 23:31:10;;;;;;;4.60;1.90;;;;;;;;;;4198717;28;20071;-76
2023/10/04 23:33:18;;;;;;;4.20;1.60;;;;;;;;;;4194797;28;20067;-77
2023/10/04 23:35:26;;;;;;;5.80;2.08;;;;;;;;;;4195650;28;20068;-77
2023/10/04 23:37:29;;;;;;;5.43;1.92;;;;;;;;;;4182962;28;20071;-77
2023/10/04 23:39:39;;;;;;;5.93;1.90;;;;;;;;;;4189930;28;20123;-75
2023/10/04 23:41:42;;;;;;;6.43;2.10;;;;;;;;;;4198818;28;20052;-76
2023/10/04 23:43:46;;;;;;;5.38;1.70;;;;;;;;;;4190047;28;20474;-75
2023/10/04 23:45:49;;;;;;;4.88;1.85;;;;;;;;;;4184417;28;20045;-77
2023/10/04 23:47:59;;;;;;;5.50;2.13;;;;;;;;;;4196397;28;20045;-75
2023/10/04 23:50:04;;;;;;;10.93;2.03;;;;;;;;;;4201320;28;20052;-74
2023/10/04 23:52:06;;;;;;;4.93;1.85;;;;;;;;;;4202005;28;20450;-74
2023/10/04 23:54:14;;;;;;;6.43;1.98;;;;;;;;;;4198732;28;20056;-75
2023/10/04 23:56:17;;;;;;;4.70;1.90;;;;;;;;;;4197095;28;20044;-72
2023/10/04 23:58:19;;;;;;;5.88;1.95;;;;;;;;;;4185556;28;20074;-74
